createdAt,value
2017-10-20T00:01:20.031Z,9.60
2017-10-20T00:03:46.587Z,9.60
2017-10-20T00:06:13.152Z,9.60
2017-10-20T00:08:39.870Z,9.50
2017-10-20T00:11:06.439Z,9.50
2017-10-20T00:13:33.012Z,9.60
2017-10-20T00:15:59.632Z,9.60
2017-10-20T00:18:26.188Z,9.50
2017-10-20T00:20:53.115Z,9.40
2017-10-20T00:23:27.250Z,9.30
2017-10-20T00:25:53.811Z,9.30
2017-10-20T00:28:20.366Z,9.30
2017-10-20T00:30:46.976Z,9.30
2017-10-20T00:33:13.919Z,9.40
2017-10-20T00:35:40.484Z,9.40
2017-10-20T00:38:07.294Z,9.50
2017-10-20T00:40:33.970Z,9.40
2017-10-20T00:43:00.971Z,9.00
2017-10-20T00:45:27.694Z,9.00
2017-10-20T00:47:54.341Z,9.00
2017-10-20T00:50:21.855Z,8.90
2017-10-20T00:52:48.608Z,9.00
2017-10-20T00:55:15.739Z,8.70
2017-10-20T00:57:42.872Z,8.70
2017-10-20T01:00:09.596Z,8.80
2017-10-20T01:02:36.601Z,8.80
2017-10-20T01:05:03.351Z,8.80
2017-10-20T01:07:30.485Z,8.90
2017-10-20T01:09:57.407Z,8.90
2017-10-20T01:12:24.019Z,8.90
2017-10-20T01:14:50.859Z,8.90
2017-10-20T01:17:17.889Z,8.80
2017-10-20T01:19:45.021Z,8.90
2017-10-20T01:22:12.157Z,8.90
2017-10-20T01:24:39.178Z,8.90
2017-10-20T01:27:05.805Z,8.90
2017-10-20T01:29:32.915Z,8.90
2017-10-20T01:31:59.641Z,8.90
2017-10-20T01:34:26.389Z,8.90
2017-10-20T01:36:53.527Z,9.00
2017-10-20T01:39:20.527Z,9.00
2017-10-20T01:41:47.152Z,9.00
2017-10-20T01:44:13.896Z,9.00
2017-10-20T01:46:40.899Z,9.00
2017-10-20T01:49:07.543Z,9.00
2017-10-20T01:51:34.684Z,9.00
2017-10-20T01:54:01.699Z,8.90
2017-10-20T01:56:28.710Z,8.90
2017-10-20T01:58:55.451Z,8.90
2017-10-20T02:01:22.062Z,8.90
2017-10-20T02:03:48.700Z,9.00
2017-10-20T02:06:15.534Z,9.10
2017-10-20T02:08:42.488Z,9.10
2017-10-20T02:11:09.160Z,9.10
2017-10-20T02:13:35.883Z,9.00
2017-10-20T02:16:02.483Z,9.00
2017-10-20T02:18:29.041Z,9.00
2017-10-20T02:20:55.743Z,9.00
2017-10-20T02:23:22.326Z,9.10
2017-10-20T02:25:48.946Z,9.00
2017-10-20T02:28:15.739Z,9.00
2017-10-20T02:30:42.685Z,8.80
2017-10-20T02:33:09.279Z,8.80
2017-10-20T02:35:35.958Z,8.80
2017-10-20T02:38:02.720Z,8.80
2017-10-20T02:40:29.320Z,8.70
2017-10-20T02:42:55.980Z,8.60
2017-10-20T02:45:22.959Z,8.40
2017-10-20T02:47:49.629Z,8.40
2017-10-20T02:50:16.819Z,8.40
2017-10-20T02:52:43.460Z,8.40
2017-10-20T02:55:10.056Z,8.60
2017-10-20T02:57:36.802Z,8.70
2017-10-20T03:00:03.409Z,8.70
2017-10-20T03:02:29.974Z,8.80
2017-10-20T03:04:57.105Z,8.80
2017-10-20T03:07:24.135Z,8.80
2017-10-20T03:09:51.075Z,8.80
2017-10-20T03:12:18.059Z,8.70
2017-10-20T03:14:44.714Z,8.70
2017-10-20T03:17:11.723Z,8.70
2017-10-20T03:19:38.348Z,8.70
2017-10-20T03:22:04.969Z,8.60
2017-10-20T03:24:31.527Z,8.60
2017-10-20T03:26:58.131Z,8.60
2017-10-20T03:29:25.057Z,8.60
2017-10-20T03:31:51.987Z,8.50
2017-10-20T03:34:18.966Z,8.50
2017-10-20T03:36:45.635Z,8.50
2017-10-20T03:39:12.665Z,8.40
2017-10-20T03:41:39.666Z,8.40
2017-10-20T03:44:06.235Z,8.30
2017-10-20T03:46:32.836Z,8.20
2017-10-20T03:49:00.073Z,8.20
2017-10-20T03:51:27.103Z,8.20
2017-10-20T03:53:54.095Z,8.20
2017-10-20T03:56:20.761Z,8.20
2017-10-20T03:58:47.660Z,8.20
2017-10-20T04:01:14.263Z,8.20
2017-10-20T04:03:41.070Z,8.20
2017-10-20T04:06:07.635Z,8.20
2017-10-20T04:08:34.238Z,8.20
2017-10-20T04:11:00.919Z,8.20
2017-10-20T04:13:27.616Z,8.20
2017-10-20T04:15:54.236Z,8.30
2017-10-20T04:18:21.369Z,8.20
2017-10-20T04:20:48.295Z,8.10
2017-10-20T04:23:14.850Z,8.10
2017-10-20T04:25:41.641Z,8.00
2017-10-20T04:28:08.557Z,7.80
2017-10-20T04:30:35.114Z,7.80
2017-10-20T04:33:01.722Z,7.80
2017-10-20T04:35:28.286Z,7.80
2017-10-20T04:37:54.850Z,7.80
2017-10-20T04:40:21.955Z,7.80
2017-10-20T04:42:48.604Z,7.80
2017-10-20T04:45:15.607Z,7.70
2017-10-20T04:47:42.664Z,7.70
2017-10-20T04:50:09.285Z,7.80
2017-10-20T04:52:36.318Z,7.80
2017-10-20T04:55:03.243Z,7.80
2017-10-20T04:57:29.787Z,7.80
2017-10-20T04:59:56.662Z,7.80
2017-10-20T05:02:23.416Z,7.80
2017-10-20T05:04:50.370Z,7.90
2017-10-20T05:07:16.923Z,7.90
2017-10-20T05:09:43.535Z,8.10
2017-10-20T05:12:10.109Z,8.10
2017-10-20T05:14:37.039Z,8.10
2017-10-20T05:17:04.026Z,8.20
2017-10-20T05:19:30.685Z,8.20
2017-10-20T05:21:57.606Z,8.10
2017-10-20T05:24:24.235Z,8.10
2017-10-20T05:26:50.855Z,8.10
2017-10-20T05:29:17.862Z,8.00
2017-10-20T05:31:44.683Z,8.00
2017-10-20T05:34:11.536Z,8.00
2017-10-20T05:36:38.772Z,8.00
2017-10-20T05:39:05.905Z,8.20
2017-10-20T05:41:32.934Z,8.10
2017-10-20T05:43:59.490Z,8.10
2017-10-20T05:46:26.111Z,8.10
2017-10-20T05:48:52.663Z,8.30
2017-10-20T05:51:19.224Z,8.40
2017-10-20T05:53:46.258Z,8.40
2017-10-20T05:56:13.179Z,8.40
2017-10-20T05:58:40.103Z,8.30
2017-10-20T06:01:06.766Z,8.30
2017-10-20T06:03:33.350Z,8.40
2017-10-20T06:06:00.267Z,8.40
2017-10-20T06:08:26.879Z,8.30
2017-10-20T06:10:53.447Z,8.30
2017-10-20T06:13:20.011Z,8.40
2017-10-20T06:15:46.623Z,8.40
2017-10-20T06:18:13.195Z,8.50
2017-10-20T06:20:41.641Z,8.50
2017-10-20T06:23:08.643Z,8.70
2017-10-20T06:25:35.223Z,8.70
2017-10-20T06:28:01.847Z,8.70
2017-10-20T06:30:28.455Z,8.80
2017-10-20T06:32:55.012Z,8.90
2017-10-20T06:35:21.627Z,9.10
2017-10-20T06:37:48.259Z,9.20
2017-10-20T06:40:14.816Z,9.30
2017-10-20T06:42:48.414Z,9.50
2017-10-20T06:45:15.035Z,9.60
2017-10-20T06:47:41.979Z,9.70
2017-10-20T06:50:08.770Z,9.70
2017-10-20T06:52:35.799Z,9.90
2017-10-20T06:55:02.420Z,9.90
2017-10-20T06:57:29.149Z,10.20
2017-10-20T06:59:56.178Z,10.70
2017-10-20T07:02:22.875Z,10.70
2017-10-20T07:04:49.599Z,11.00
2017-10-20T07:07:16.349Z,11.20
2017-10-20T07:09:43.352Z,11.60
2017-10-20T07:12:10.079Z,11.60
2017-10-20T07:14:36.723Z,11.70
2017-10-20T07:17:03.711Z,12.00
2017-10-20T07:22:36.340Z,12.30
2017-10-20T07:25:03.023Z,12.40
2017-10-20T07:27:29.616Z,12.30
2017-10-20T07:29:56.288Z,12.30
2017-10-20T07:32:23.357Z,12.60
2017-10-20T07:34:49.953Z,12.60
2017-10-20T07:37:16.524Z,12.90
2017-10-20T07:39:43.171Z,13.20
2017-10-20T07:42:09.751Z,13.40
2017-10-20T07:44:36.330Z,13.60
2017-10-20T07:47:03.061Z,13.80
2017-10-20T07:49:29.638Z,13.90
2017-10-20T07:51:56.211Z,14.10
2017-10-20T07:54:22.983Z,14.20
2017-10-20T07:56:49.583Z,14.40
2017-10-20T07:59:16.151Z,14.60
2017-10-20T08:01:42.920Z,14.80
2017-10-20T08:04:09.503Z,15.00
2017-10-20T08:06:36.416Z,15.40
2017-10-20T08:09:03.187Z,15.40
2017-10-20T08:11:29.743Z,15.50
2017-10-20T08:13:56.299Z,15.80
2017-10-20T08:16:22.900Z,15.90
2017-10-20T08:18:49.850Z,16.20
2017-10-20T08:21:16.418Z,16.20
2017-10-20T08:23:43.024Z,16.30
2017-10-20T08:26:09.644Z,16.50
2017-10-20T08:28:36.204Z,16.60
2017-10-20T08:31:02.828Z,16.60
2017-10-20T08:33:29.371Z,16.70
2017-10-20T08:35:55.935Z,16.80
2017-10-20T08:38:22.551Z,16.90
2017-10-20T08:40:49.108Z,17.00
2017-10-20T08:43:16.099Z,17.30
2017-10-20T08:45:42.791Z,17.20
2017-10-20T08:48:09.455Z,17.40
2017-10-20T08:50:36.074Z,17.40
2017-10-20T08:53:02.735Z,17.40
2017-10-20T08:55:29.671Z,17.60
2017-10-20T08:57:56.639Z,17.60
2017-10-20T09:00:23.331Z,17.70
2017-10-20T09:02:49.931Z,17.70
2017-10-20T09:05:16.878Z,18.00
2017-10-20T09:07:43.674Z,18.00
2017-10-20T09:10:10.234Z,18.10
2017-10-20T09:12:36.792Z,18.20
2017-10-20T09:15:03.415Z,18.20
2017-10-20T09:17:30.043Z,18.30
2017-10-20T09:19:56.605Z,18.30
2017-10-20T09:22:23.223Z,18.40
2017-10-20T09:24:50.148Z,18.60
2017-10-20T09:27:17.075Z,18.70
2017-10-20T09:29:44.046Z,18.90
2017-10-20T09:32:10.673Z,18.90
2017-10-20T09:34:37.240Z,19.00
2017-10-20T09:37:04.411Z,19.20
2017-10-20T09:39:30.963Z,19.20
2017-10-20T09:41:57.515Z,19.30
2017-10-20T09:44:24.222Z,19.30
2017-10-20T09:46:50.811Z,19.50
2017-10-20T09:49:17.395Z,19.50
2017-10-20T09:51:44.079Z,19.60
2017-10-20T09:54:10.644Z,19.70
2017-10-20T09:56:37.202Z,19.70
2017-10-20T09:59:03.907Z,19.80
2017-10-20T10:01:30.609Z,19.80
2017-10-20T10:03:57.847Z,19.80
2017-10-20T10:06:24.535Z,19.90
2017-10-20T10:08:51.484Z,20.10
2017-10-20T10:11:18.455Z,20.10
2017-10-20T10:13:45.051Z,20.10
2017-10-20T10:16:11.660Z,20.10
2017-10-20T10:18:38.218Z,20.20
2017-10-20T10:21:05.971Z,20.20
2017-10-20T10:23:32.608Z,20.30
2017-10-20T10:25:59.257Z,20.40
2017-10-20T10:28:25.937Z,20.50
2017-10-20T10:30:52.559Z,20.60
2017-10-20T10:33:19.126Z,20.60
2017-10-20T10:35:45.747Z,20.70
2017-10-20T10:38:12.363Z,20.80
2017-10-20T10:40:39.291Z,20.90
2017-10-20T10:43:06.267Z,21.00
2017-10-20T10:45:33.027Z,21.00
2017-10-20T10:47:59.694Z,21.00
2017-10-20T10:50:26.311Z,21.00
2017-10-20T10:52:53.906Z,21.00
2017-10-20T10:55:20.870Z,21.10
2017-10-20T10:57:47.872Z,21.10
2017-10-20T11:00:14.890Z,21.30
2017-10-20T11:02:41.467Z,21.30
2017-10-20T11:05:08.184Z,21.40
2017-10-20T11:07:46.876Z,21.40
2017-10-20T11:10:25.575Z,21.50
2017-10-20T11:13:04.319Z,21.40
2017-10-20T11:15:31.011Z,21.40
2017-10-20T11:17:57.591Z,21.40
2017-10-20T11:20:24.155Z,21.50
2017-10-20T11:22:50.854Z,21.50
2017-10-20T11:25:17.467Z,21.70
2017-10-20T11:27:44.056Z,21.70
2017-10-20T11:30:10.715Z,21.90
2017-10-20T11:32:37.651Z,22.00
2017-10-20T11:35:04.606Z,22.10
2017-10-20T11:37:31.255Z,22.10
2017-10-20T11:39:57.827Z,22.00
2017-10-20T11:42:24.795Z,22.00
2017-10-20T11:44:51.440Z,22.00
2017-10-20T11:47:18.040Z,22.10
2017-10-20T11:49:44.608Z,22.10
2017-10-20T11:52:11.578Z,22.30
2017-10-20T11:54:38.167Z,22.30
2017-10-20T11:57:05.112Z,22.30
2017-10-20T11:59:31.859Z,22.30
2017-10-20T12:01:58.411Z,22.40
2017-10-20T12:04:25.010Z,22.50
2017-10-20T12:06:51.629Z,22.60
2017-10-20T12:09:18.218Z,22.60
2017-10-20T12:11:44.826Z,22.60
2017-10-20T12:14:11.440Z,22.70
2017-10-20T12:16:38.440Z,23.00
2017-10-20T12:19:05.019Z,23.00
2017-10-20T12:21:31.679Z,23.10
2017-10-20T12:23:58.226Z,23.00
2017-10-20T12:26:25.146Z,23.10
2017-10-20T12:28:51.755Z,23.10
2017-10-20T12:31:18.307Z,23.10
2017-10-20T12:33:45.236Z,23.10
2017-10-20T12:36:12.363Z,22.90
2017-10-20T12:38:39.300Z,23.00
2017-10-20T12:41:05.871Z,23.00
2017-10-20T12:43:32.494Z,23.10
2017-10-20T12:45:59.043Z,23.30
2017-10-20T12:48:25.983Z,23.40
2017-10-20T12:50:52.955Z,23.50
2017-10-20T12:53:19.508Z,23.50
2017-10-20T12:55:46.062Z,23.40
2017-10-20T12:58:12.687Z,23.40
2017-10-20T13:00:39.232Z,23.30
2017-10-20T13:03:06.159Z,23.40
2017-10-20T13:05:32.792Z,23.30
2017-10-20T13:07:59.395Z,23.20
2017-10-20T13:10:25.992Z,23.30
2017-10-20T13:12:52.624Z,23.40
2017-10-20T13:15:19.179Z,23.60
2017-10-20T13:17:45.740Z,23.60
2017-10-20T13:20:12.743Z,23.40
2017-10-20T13:22:39.292Z,23.40
2017-10-20T13:25:05.852Z,23.40
2017-10-20T13:27:32.674Z,23.40
2017-10-20T13:29:59.226Z,23.40
2017-10-20T13:32:25.771Z,23.50
2017-10-20T13:34:52.755Z,23.70
2017-10-20T13:37:19.313Z,23.60
2017-10-20T13:39:46.235Z,23.60
2017-10-20T13:42:12.832Z,23.60
2017-10-20T13:44:39.391Z,23.60
2017-10-20T13:47:06.320Z,23.50
2017-10-20T13:49:32.960Z,23.50
2017-10-20T13:51:59.512Z,23.50
2017-10-20T13:54:26.046Z,23.50
2017-10-20T13:56:52.776Z,23.40
2017-10-20T13:59:19.780Z,23.40
2017-10-20T14:01:46.356Z,23.40
2017-10-20T14:04:13.054Z,23.40
2017-10-20T14:06:39.643Z,23.50
2017-10-20T14:09:06.203Z,23.40
2017-10-20T14:11:32.927Z,23.40
2017-10-20T14:13:59.848Z,23.40
2017-10-20T14:16:26.400Z,23.40
2017-10-20T14:18:53.115Z,23.30
2017-10-20T14:21:19.723Z,23.20
2017-10-20T14:23:46.630Z,23.20
2017-10-20T14:26:13.439Z,23.20
2017-10-20T14:28:39.992Z,23.10
2017-10-20T14:31:06.555Z,23.10
2017-10-20T14:33:33.172Z,23.00
2017-10-20T14:35:59.723Z,23.10
2017-10-20T14:38:26.279Z,23.10
2017-10-20T14:40:53.447Z,23.00
2017-10-20T14:43:19.999Z,23.00
2017-10-20T14:45:46.540Z,23.00
2017-10-20T14:48:13.136Z,23.00
2017-10-20T14:50:39.692Z,22.90
2017-10-20T14:53:06.608Z,22.80
2017-10-20T14:55:33.223Z,22.80
2017-10-20T14:57:59.781Z,22.70
2017-10-20T15:00:26.332Z,22.40
2017-10-20T15:02:52.927Z,22.20
2017-10-20T15:05:19.746Z,22.00
2017-10-20T15:07:46.299Z,21.80
2017-10-20T15:10:12.900Z,21.60
2017-10-20T15:12:39.455Z,21.30
2017-10-20T15:15:06.019Z,21.20
2017-10-20T15:17:33.071Z,20.90
2017-10-20T15:19:59.644Z,20.90
2017-10-20T15:22:26.191Z,20.80
2017-10-20T15:24:52.824Z,20.70
2017-10-20T15:27:19.400Z,20.60
2017-10-20T15:29:45.951Z,20.40
2017-10-20T15:32:12.544Z,20.20
2017-10-20T15:34:39.095Z,20.00
2017-10-20T15:37:05.663Z,19.90
2017-10-20T15:39:32.359Z,19.70
2017-10-20T15:41:58.907Z,19.60
2017-10-20T15:44:25.463Z,19.40
2017-10-20T15:46:52.447Z,19.10
2017-10-20T15:49:19.011Z,19.10
2017-10-20T15:51:45.925Z,18.90
2017-10-20T15:54:12.523Z,18.90
2017-10-20T15:56:39.072Z,18.70
2017-10-20T15:59:05.995Z,18.50
2017-10-20T16:01:32.599Z,18.50
2017-10-20T16:03:59.166Z,18.40
2017-10-20T16:06:25.798Z,18.30
2017-10-20T16:08:52.404Z,18.20
2017-10-20T16:11:18.963Z,18.20
2017-10-20T16:13:45.512Z,18.10
2017-10-20T16:16:12.123Z,18.10
2017-10-20T16:18:38.687Z,18.00
2017-10-20T16:21:05.244Z,17.80
2017-10-20T16:23:31.856Z,17.80
2017-10-20T16:25:58.415Z,17.80
2017-10-20T16:28:24.970Z,17.70
2017-10-20T16:30:51.608Z,17.50
2017-10-20T16:33:18.174Z,17.40
2017-10-20T16:35:44.736Z,17.40
2017-10-20T16:38:11.468Z,17.20
2017-10-20T16:40:38.039Z,17.20
2017-10-20T16:43:04.595Z,17.20
2017-10-20T16:45:31.211Z,17.20
2017-10-20T16:47:57.763Z,17.10
2017-10-20T16:50:24.311Z,17.00
2017-10-20T16:52:50.928Z,17.00
2017-10-20T16:55:17.487Z,16.90
2017-10-20T16:57:44.048Z,16.80
2017-10-20T17:00:10.674Z,16.70
2017-10-20T17:02:37.228Z,16.70
2017-10-20T17:05:04.167Z,16.70
2017-10-20T17:07:31.183Z,16.70
2017-10-20T17:09:57.735Z,16.70
2017-10-20T17:12:24.286Z,16.60
2017-10-20T17:14:50.936Z,16.60
2017-10-20T17:17:17.491Z,16.50
2017-10-20T17:19:44.048Z,16.50
2017-10-20T17:22:10.675Z,16.40
2017-10-20T17:24:37.251Z,16.40
2017-10-20T17:27:03.929Z,16.50
2017-10-20T17:29:30.615Z,16.50
2017-10-20T17:31:57.204Z,16.60
2017-10-20T17:34:24.262Z,16.80
2017-10-20T17:36:50.894Z,16.80
2017-10-20T17:39:17.467Z,16.90
2017-10-20T17:41:44.391Z,17.30
2017-10-20T17:44:11.376Z,17.40
2017-10-20T17:46:37.927Z,17.40
2017-10-20T17:49:04.483Z,17.40
2017-10-20T17:51:31.107Z,17.50
2017-10-20T17:53:57.673Z,17.60
2017-10-20T17:56:24.223Z,17.70
2017-10-20T17:58:51.179Z,17.70
2017-10-20T18:01:17.822Z,17.70
2017-10-20T18:03:44.383Z,17.70
2017-10-20T18:06:10.979Z,17.70
2017-10-20T18:08:37.588Z,17.70
2017-10-20T18:11:04.169Z,17.70
2017-10-20T18:13:31.151Z,17.70
2017-10-20T18:15:57.765Z,17.80
2017-10-20T18:18:24.355Z,17.80
2017-10-20T18:20:50.984Z,17.80
2017-10-20T18:23:17.536Z,17.80
2017-10-20T18:25:45.052Z,17.70
2017-10-20T18:28:11.775Z,17.70
2017-10-20T18:30:39.380Z,17.80
2017-10-20T18:33:06.321Z,17.70
2017-10-20T18:35:32.945Z,17.70
2017-10-20T18:37:59.500Z,17.70
2017-10-20T18:40:26.056Z,17.70
2017-10-20T18:42:52.711Z,17.70
2017-10-20T18:45:19.273Z,17.60
2017-10-20T18:47:45.827Z,17.60
2017-10-20T18:50:13.823Z,17.50
2017-10-20T18:52:40.370Z,17.50
2017-10-20T18:55:06.940Z,17.40
2017-10-20T18:57:33.537Z,17.30
2017-10-20T19:00:00.566Z,17.10
2017-10-20T19:02:27.506Z,17.00
2017-10-20T19:04:54.492Z,17.00
2017-10-20T19:07:21.065Z,17.00
2017-10-20T19:09:47.649Z,16.90
2017-10-20T19:12:14.268Z,16.90
2017-10-20T19:14:40.831Z,16.70
2017-10-20T19:17:07.480Z,16.70
2017-10-20T19:19:34.438Z,16.60
2017-10-20T19:22:01.077Z,16.50
2017-10-20T19:24:28.020Z,16.40
2017-10-20T19:26:55.008Z,16.30
2017-10-20T19:29:22.385Z,16.30
2017-10-20T19:31:49.302Z,16.30
2017-10-20T19:34:16.307Z,16.20
2017-10-20T19:36:42.879Z,16.20
2017-10-20T19:39:09.600Z,16.10
2017-10-20T19:41:36.217Z,16.10
2017-10-20T19:44:02.783Z,16.10
2017-10-20T19:46:37.635Z,16.00
2017-10-20T19:49:04.619Z,15.90
2017-10-20T19:51:31.281Z,15.90
2017-10-20T19:53:58.272Z,15.70
2017-10-20T19:56:24.832Z,15.80
2017-10-20T19:58:52.037Z,15.60
2017-10-20T20:01:18.738Z,15.60
2017-10-20T20:03:45.298Z,15.50
2017-10-20T20:06:11.855Z,15.40
2017-10-20T20:08:39.747Z,15.30
2017-10-20T20:11:06.443Z,15.30
2017-10-20T20:13:33.426Z,15.30
2017-10-20T20:16:00.071Z,15.30
2017-10-20T20:18:26.628Z,15.30
2017-10-20T20:20:53.228Z,15.30
2017-10-20T20:23:19.851Z,15.30
2017-10-20T20:25:46.511Z,15.30
2017-10-20T20:28:13.071Z,15.20
2017-10-20T20:30:43.774Z,15.20
2017-10-20T20:33:10.801Z,15.00
2017-10-20T20:35:37.772Z,14.90
2017-10-20T20:38:04.439Z,14.90
2017-10-20T20:40:31.055Z,14.80
2017-10-20T20:42:57.681Z,14.70
2017-10-20T20:45:24.568Z,14.60
2017-10-20T20:47:51.135Z,14.60
2017-10-20T20:50:17.740Z,14.50
2017-10-20T20:52:44.383Z,14.50
2017-10-20T20:55:10.995Z,14.40
2017-10-20T20:57:37.617Z,14.30
2017-10-20T21:00:04.349Z,14.20
2017-10-20T21:02:31.036Z,14.20
2017-10-20T21:04:58.331Z,14.10
2017-10-20T21:07:24.959Z,14.10
2017-10-20T21:09:51.878Z,14.10
2017-10-20T21:12:18.623Z,14.00
2017-10-20T21:14:45.252Z,14.00
2017-10-20T21:17:12.011Z,14.00
2017-10-20T21:19:38.683Z,13.90
2017-10-20T21:22:05.455Z,13.90
2017-10-20T21:24:40.772Z,13.90
2017-10-20T21:27:07.379Z,13.90
2017-10-20T21:29:34.011Z,13.90
2017-10-20T21:32:00.568Z,13.90
2017-10-20T21:34:27.768Z,13.90
2017-10-20T21:36:54.332Z,13.90
2017-10-20T21:39:21.275Z,14.00
2017-10-20T21:41:47.884Z,14.00
2017-10-20T21:44:14.628Z,14.00
2017-10-20T21:46:41.205Z,14.10
2017-10-20T21:49:07.826Z,14.10
2017-10-20T21:51:35.051Z,14.00
2017-10-20T21:54:01.698Z,14.00
2017-10-20T21:56:28.359Z,14.10
2017-10-20T21:58:54.907Z,14.00
2017-10-20T22:01:21.467Z,14.00
2017-10-20T22:03:48.104Z,13.90
2017-10-20T22:06:14.692Z,13.90
2017-10-20T22:08:41.275Z,14.00
2017-10-20T22:11:08.034Z,13.90
2017-10-20T22:13:34.978Z,14.00
2017-10-20T22:16:01.551Z,14.00
2017-10-20T22:18:28.188Z,14.10
2017-10-20T22:20:54.739Z,14.10
2017-10-20T22:23:21.662Z,14.10
2017-10-20T22:25:48.647Z,14.00
2017-10-20T22:28:15.203Z,14.00
2017-10-20T22:30:42.143Z,13.90
2017-10-20T22:33:09.659Z,14.00
2017-10-20T22:35:36.263Z,14.00
2017-10-20T22:38:02.847Z,14.00
2017-10-20T22:40:29.475Z,14.00
2017-10-20T22:42:56.044Z,14.00
2017-10-20T22:45:22.616Z,14.00
2017-10-20T22:47:49.245Z,14.00
2017-10-20T22:50:15.821Z,14.00
2017-10-20T22:52:42.744Z,14.00
2017-10-20T22:55:09.512Z,14.00
2017-10-20T22:57:36.087Z,14.00
2017-10-20T23:00:03.020Z,13.90
2017-10-20T23:02:30.007Z,13.90
2017-10-20T23:04:56.564Z,13.90
2017-10-20T23:07:23.118Z,13.80
2017-10-20T23:09:49.740Z,13.80
2017-10-20T23:12:16.323Z,13.80
2017-10-20T23:14:42.890Z,13.80
2017-10-20T23:17:09.607Z,13.90
2017-10-20T23:19:36.160Z,13.90
2017-10-20T23:22:02.736Z,13.90
2017-10-20T23:24:29.358Z,13.80
2017-10-20T23:26:55.912Z,13.90
2017-10-20T23:29:22.484Z,13.80
2017-10-20T23:31:49.495Z,13.80
2017-10-20T23:34:16.053Z,13.80
2017-10-20T23:36:42.922Z,13.70
2017-10-20T23:39:09.939Z,13.80
2017-10-20T23:41:36.512Z,13.80
2017-10-20T23:44:03.448Z,13.80
2017-10-20T23:46:30.059Z,13.80
2017-10-20T23:48:57.000Z,13.80
2017-10-20T23:51:23.612Z,13.80
2017-10-20T23:53:50.595Z,13.80
2017-10-20T23:56:17.135Z,13.80
2017-10-20T23:58:43.690Z,13.80
